Canadian's Hourly Summary for Sunday, March 19, 2017
Hour Temp
(f)
RH
(%)
Solar Rad.
(MJ/m2)
Rainfall
(in)
Wind
(mph)
3/19/2017 12:00 AM 66 61 0 0 5.26
3/19/2017 1:00 AM 65 64 0 0 7.11
3/19/2017 2:00 AM 65 65 0 0 7.21
3/19/2017 3:00 AM 63 68 0 0 6.69
3/19/2017 4:00 AM 63 66 0 0 7.18
3/19/2017 5:00 AM 62 65 0 0 7.12
3/19/2017 6:00 AM 60 69 0 0 3.49
3/19/2017 7:00 AM 56 77 0 0 0.79
3/19/2017 8:00 AM 52 83 0.01 0 0.37
3/19/2017 9:00 AM 55 67 0.29 0 0.16
3/19/2017 10:00 AM 65 47 0.95 0 2.6
3/19/2017 11:00 AM 74 35 1.61 0 5.72
3/19/2017 12:00 PM 80 28 2.17 0 7.3
3/19/2017 1:00 PM 85 21 2.58 0 6.74
3/19/2017 2:00 PM 89 19 2.76 0 8.57
3/19/2017 3:00 PM 92 13 2.75 0 9.87
3/19/2017 4:00 PM 93 13 2.44 0 8.57
3/19/2017 5:00 PM 95 6 2.07 0 7.91
3/19/2017 6:00 PM 94 6 1.36 0 7.86
3/19/2017 7:00 PM 94 5 0.86 0 6.04
3/19/2017 8:00 PM 87 5 0.14 0 3.66
3/19/2017 9:00 PM 77 11 0 0 5.26
3/19/2017 10:00 PM 75 34 0 0 6.98
3/19/2017 11:00 PM 72 38 0 0 7.85
Data Summary 74 40 19.99 0.00 5.85